CheckWX is a tool to help pilots better visualize weather data.  It is not intended as a substitute for an official pre-flight weather briefing.

17:40:09 UTC

KHFD METAR
Hartford-Brainard Airport
Hartford, Connecticut, USA
Current

47 mins ago

KHFD 201653Z 33006KT 10SM FEW050 SCT120 00/M12 A3042 RMK AO2 SLP299 T00001122
Observed
Feb-20 @ 16:53 UTC
Wind
  • 330° at 6 KTS
Visibility
10 SM
Flight Rules
VFR
Cloud Levels
  • Few at 5,000' AGL
  • Scattered at 12,000' AGL
Temperature
C / 32°F
Dewpoint
-12°C / 10°F
Humidity
40%
Altimeter
30.42" Hg
Pressure
1030.12 hPa
Previous

2 hours ago

KHFD 201553Z VRB06KT 10SM FEW049 M01/M12 A3045 RMK AO2 SLP311 T10061122
Observed
Feb-20 @ 15:53 UTC
Wind
  • Variable at 6 KTS
Visibility
10 SM
Flight Rules
VFR
Cloud Levels
  • Few at 4,900' AGL
Temperature
-1°C / 30°F
Dewpoint
-12°C / 10°F
Humidity
43%
Altimeter
30.45" Hg
Pressure
1031.12 hPa
Previous

3 hours ago

KHFD 201453Z 31005KT 10SM CLR M02/M12 A3046 RMK AO2 SLP315 T10171122 50004
Observed
Feb-20 @ 14:53 UTC
Wind
  • 310° at 5 KTS
Visibility
10 SM
Flight Rules
VFR
Cloud Levels
  • Clear skies
Temperature
-2°C / 28°F
Dewpoint
-12°C / 10°F
Humidity
47%
Altimeter
30.46" Hg
Pressure
1031.52 hPa